Time;durP1;ratioP1;P1;durP2;ratioP2;P2;SDS_P1;SDS_P2;PMS_P1;PMS_P2;Temp;Humidity;BMP_temperature;BMP_pressure;BME280_temperature;BME280_humidity;BME280_pressure;Samples;Min_cycle;Max_cycle;Signal;HPM_P1;HPM_P2
2022/11/25 00:01:45;;;;;;;3.67;1.40;;;;;;;;;;5053696;28;20032;-83
2022/11/25 00:04:11;;;;;;;2.83;1.23;;;;;;;;;;5044500;28;20041;-83
2022/11/25 00:06:37;;;;;;;1.17;1.02;;;;;;;;;;5051729;28;20025;-82
2022/11/25 00:09:05;;;;;;;2.38;1.27;;;;;;;;;;5029492;28;20041;-84
2022/11/25 00:11:33;;;;;;;6.03;1.88;;;;;;;;;;5040303;28;20018;-82
2022/11/25 00:13:59;;;;;;;4.13;1.88;;;;;;;;;;5042957;28;20030;-81
2022/11/25 00:16:25;;;;;;;3.20;1.95;;;;;;;;;;5015039;28;20025;-83
2022/11/25 00:18:52;;;;;;;1.77;1.40;;;;;;;;;;5033924;28;20038;-82
2022/11/25 00:21:19;;;;;;;5.47;2.53;;;;;;;;;;5033552;28;20033;-82
2022/11/25 00:23:50;;;;;;;4.13;1.48;;;;;;;;;;5027720;28;20037;-83
2022/11/25 00:26:16;;;;;;;4.57;1.98;;;;;;;;;;5038473;28;20033;-82
2022/11/25 00:28:43;;;;;;;6.78;1.23;;;;;;;;;;5033166;28;20044;-82
2022/11/25 00:31:13;;;;;;;1.20;0.85;;;;;;;;;;5040877;28;20038;-81
2022/11/25 00:33:39;;;;;;;1.75;1.20;;;;;;;;;;5037910;28;20090;-82
2022/11/25 00:36:07;;;;;;;1.85;1.20;;;;;;;;;;5037912;28;20045;-82
2022/11/25 00:38:33;;;;;;;2.88;1.25;;;;;;;;;;5033066;28;20030;-82
2022/11/25 00:46:29;;;;;;;8.00;1.20;;;;;;;;;;5036851;28;20091;-83
2022/11/25 00:48:55;;;;;;;2.97;1.52;;;;;;;;;;5026427;28;20022;-84
2022/11/25 00:51:21;;;;;;;1.88;1.42;;;;;;;;;;5027972;28;20025;-83
2022/11/25 00:53:46;;;;;;;2.35;1.20;;;;;;;;;;5039034;28;20128;-84
2022/11/25 00:56:12;;;;;;;4.78;1.33;;;;;;;;;;5036571;28;20387;-85
2022/11/25 00:58:41;;;;;;;3.20;1.65;;;;;;;;;;5037040;28;20053;-84
2022/11/25 01:01:08;;;;;;;3.08;1.63;;;;;;;;;;5035385;28;20033;-84
2022/11/25 01:03:35;;;;;;;1.88;1.70;;;;;;;;;;5040400;28;20033;-83
2022/11/25 01:06:03;;;;;;;5.97;2.22;;;;;;;;;;5034436;28;20031;-84
2022/11/25 01:08:29;;;;;;;4.28;1.92;;;;;;;;;;5038622;28;20033;-83
2022/11/25 01:11:02;;;;;;;3.72;1.73;;;;;;;;;;5038100;28;22618;-84
2022/11/25 01:13:28;;;;;;;1.88;1.45;;;;;;;;;;5032005;28;20050;-83
2022/11/25 01:15:54;;;;;;;15.70;2.53;;;;;;;;;;5040709;28;20022;-84
2022/11/25 01:18:20;;;;;;;6.97;1.73;;;;;;;;;;5036290;28;20040;-83
2022/11/25 01:20:46;;;;;;;2.88;1.80;;;;;;;;;;5036407;28;20223;-83
2022/11/25 01:23:12;;;;;;;12.40;2.25;;;;;;;;;;5037377;28;20030;-84
2022/11/25 01:25:41;;;;;;;3.95;2.22;;;;;;;;;;5035287;28;20074;-83
2022/11/25 01:28:07;;;;;;;5.70;1.65;;;;;;;;;;5033434;28;20032;-83
2022/11/25 01:30:33;;;;;;;4.90;1.83;;;;;;;;;;5040485;28;20037;-83
2022/11/25 01:32:59;;;;;;;4.68;1.63;;;;;;;;;;5039121;28;20014;-83
2022/11/25 01:35:25;;;;;;;2.55;1.48;;;;;;;;;;5037310;28;20059;-83
2022/11/25 01:37:51;;;;;;;5.80;2.50;;;;;;;;;;5039737;28;20117;-83
2022/11/25 01:40:17;;;;;;;5.35;2.85;;;;;;;;;;5037505;28;20029;-82
2022/11/25 01:42:45;;;;;;;4.80;1.85;;;;;;;;;;5035771;28;20025;-84
2022/11/25 01:45:23;;;;;;;3.25;2.35;;;;;;;;;;5035785;28;20617;-83
2022/11/25 01:47:50;;;;;;;3.42;2.20;;;;;;;;;;5034456;28;20041;-82
2022/11/25 01:50:18;;;;;;;10.77;2.33;;;;;;;;;;5031851;28;20041;-83
2022/11/25 01:52:45;;;;;;;3.53;2.03;;;;;;;;;;5033659;28;20089;-84
2022/11/25 01:55:25;;;;;;;2.80;1.83;;;;;;;;;;5038275;28;20016;-83
2022/11/25 01:57:54;;;;;;;4.07;1.85;;;;;;;;;;5035106;28;20037;-84
2022/11/25 02:00:20;;;;;;;2.90;1.52;;;2.30;99.90;;;;;;5031756;28;20078;-82
2022/11/25 02:02:47;;;;;;;3.25;2.28;;;;;;;;;;5037018;28;20533;-83
2022/11/25 02:05:16;;;;;;;3.72;2.30;;;;;;;;;;5034213;28;20558;-83
2022/11/25 02:07:43;;;;;;;3.50;2.60;;;;;;;;;;5032466;28;20048;-83
2022/11/25 02:10:12;;;;;;;3.88;2.35;;;;;;;;;;5029850;28;20520;-82
2022/11/25 02:12:40;;;;;;;3.75;2.60;;;;;;;;;;5036135;28;20053;-83
2022/11/25 02:15:06;;;;;;;2.47;2.10;;;;;;;;;;5032130;28;20029;-84
2022/11/25 02:17:32;;;;;;;4.25;2.08;;;;;;;;;;5036975;28;20050;-83
2022/11/25 02:20:06;;;;;;;5.30;2.80;;;;;;;;;;5034395;28;20018;-84
2022/11/25 02:22:44;;;;;;;4.63;2.95;;;;;;;;;;5034827;28;20507;-83
2022/11/25 02:25:19;;;;;;;1.23;1.13;;;;;;;;;;5035389;28;20041;-83
2022/11/25 02:27:47;;;;;;;3.90;2.22;;;;;;;;;;5036450;28;20503;-82
2022/11/25 02:30:13;;;;;;;2.80;1.88;;;;;;;;;;5035180;28;20045;-83
2022/11/25 02:32:43;;;;;;;17.65;2.45;;;;;;;;;;5034452;28;20030;-84
2022/11/25 02:35:39;;;;;;;4.25;1.77;;;;;;;;;;5033562;28;20036;-83
2022/11/25 02:38:13;;;;;;;2.90;2.15;;;2.20;99.90;;;;;;5018575;28;20052;-83
2022/11/25 02:40:45;;;;;;;3.70;2.25;;;;;;;;;;5032175;28;20036;-84
2022/11/25 02:43:11;;;;;;;4.00;2.70;;;;;;;;;;5031319;28;21682;-82
2022/11/25 02:45:43;;;;;;;4.75;1.95;;;;;;;;;;5031510;28;20036;-83
2022/11/25 02:48:09;;;;;;;3.35;2.60;;;;;;;;;;5037113;28;20076;-83
2022/11/25 02:50:35;;;;;;;3.38;2.45;;;;;;;;;;5038468;28;20033;-83
2022/11/25 02:53:01;;;;;;;5.68;3.25;;;;;;;;;;5034437;28;20024;-83
2022/11/25 02:55:27;;;;;;;2.47;2.00;;;;;;;;;;5042191;28;20033;-82
2022/11/25 02:57:53;;;;;;;13.25;2.60;;;;;;;;;;5038953;28;20029;-83
2022/11/25 03:00:19;;;;;;;8.07;2.50;;;;;;;;;;5037034;28;20053;-83
2022/11/25 03:02:46;;;;;;;3.72;2.65;;;;;;;;;;5038467;28;20040;-82
2022/11/25 03:05:11;;;;;;;2.95;2.00;;;;;;;;;;5036172;28;20026;-82
2022/11/25 03:07:38;;;;;;;6.60;2.00;;;;;;;;;;5036992;28;20026;-83
2022/11/25 03:10:04;;;;;;;2.83;2.00;;;;;;;;;;5039880;28;20033;-82
2022/11/25 03:12:31;;;;;;;3.20;2.30;;;;;;;;;;5041052;28;20025;-83
2022/11/25 03:14:57;;;;;;;5.18;2.08;;;;;;;;;;5035613;28;20452;-82
2022/11/25 03:17:23;;;;;;;8.82;2.53;;;;;;;;;;5039449;28;20057;-83
2022/11/25 03:19:49;;;;;;;3.63;2.47;;;;;;;;;;5038877;28;20044;-83
2022/11/25 03:22:15;;;;;;;2.75;1.77;;;;;;;;;;5039805;28;20088;-83
2022/11/25 03:24:41;;;;;;;4.20;2.53;;;;;;;;;;5040577;28;20022;-83
2022/11/25 03:27:07;;;;;;;11.65;2.72;;;;;;;;;;5037552;28;20018;-82
2022/11/25 03:29:32;;;;;;;4.97;2.72;;;;;;;;;;5040394;28;20174;-83
2022/11/25 03:31:58;;;;;;;4.13;2.47;;;;;;;;;;5038865;28;20093;-82
2022/11/25 03:34:24;;;;;;;5.90;3.42;;;;;;;;;;5034797;28;20072;-83
2022/11/25 03:36:50;;;;;;;3.65;2.08;;;;;;;;;;5030542;28;20558;-83
2022/11/25 03:39:16;;;;;;;4.07;2.38;;;;;;;;;;5032159;28;20025;-82
2022/11/25 03:41:42;;;;;;;2.97;2.17;;;;;;;;;;5038507;28;20087;-83
2022/11/25 03:44:08;;;;;;;9.10;2.63;;;;;;;;;;5041218;28;20029;-84
2022/11/25 03:46:34;;;;;;;4.13;3.17;;;;;;;;;;5038525;28;20052;-83
2022/11/25 03:49:00;;;;;;;2.50;1.98;;;;;;;;;;5037242;28;20047;-82
2022/11/25 03:51:26;;;;;;;23.83;2.92;;;;;;;;;;5038556;28;20093;-83
2022/11/25 03:53:52;;;;;;;3.95;2.55;;;;;;;;;;5034937;28;20033;-82
2022/11/25 03:56:18;;;;;;;4.88;2.90;;;;;;;;;;5042173;28;20047;-83
2022/11/25 03:58:44;;;;;;;6.25;3.70;;;;;;;;;;5037415;28;20056;-83
2022/11/25 04:01:10;;;;;;;7.30;2.85;;;;;;;;;;5038434;28;20438;-82
2022/11/25 04:03:36;;;;;;;8.45;3.22;;;;;;;;;;5035444;28;20041;-83
2022/11/25 04:06:02;;;;;;;5.68;2.40;;;;;;;;;;5034309;28;20029;-83
2022/11/25 04:08:28;;;;;;;4.32;2.67;;;;;;;;;;5035883;28;20041;-82
2022/11/25 04:10:54;;;;;;;3.78;2.22;;;;;;;;;;5028160;28;20578;-82
2022/11/25 04:13:20;;;;;;;5.07;2.53;;;;;;;;;;5032678;28;20030;-82
2022/11/25 04:15:47;;;;;;;4.18;3.13;;;;;;;;;;5037830;28;20038;-82
2022/11/25 04:18:13;;;;;;;4.10;3.03;;;;;;;;;;5032511;28;20041;-83
2022/11/25 04:20:39;;;;;;;5.38;2.55;;;;;;;;;;5035896;28;20480;-82
2022/11/25 04:23:05;;;;;;;5.95;2.80;;;;;;;;;;5040370;28;20057;-83
2022/11/25 04:25:31;;;;;;;3.85;2.35;;;;;;;;;;5034431;28;20383;-82
2022/11/25 04:27:58;;;;;;;7.10;2.63;;;;;;;;;;5037945;28;20017;-83
2022/11/25 04:30:24;;;;;;;3.42;2.53;;;;;;;;;;5034982;28;20025;-83
2022/11/25 04:32:50;;;;;;;4.95;1.95;;;;;;;;;;5036517;28;20514;-85
2022/11/25 04:35:17;;;;;;;7.05;2.63;;;;;;;;;;5033057;28;20097;-82
2022/11/25 04:37:42;;;;;;;3.72;2.90;;;;;;;;;;5036046;28;20087;-83
2022/11/25 04:40:09;;;;;;;3.20;2.20;;;;;;;;;;5041125;28;20899;-83
2022/11/25 04:42:36;;;;;;;3.83;2.55;;;;;;;;;;5031313;28;20029;-83
2022/11/25 04:45:07;;;;;;;3.50;2.50;;;;;;;;;;5039112;28;20044;-82
2022/11/25 04:47:33;;;;;;;2.55;2.10;;;;;;;;;;5043495;28;20032;-83
2022/11/25 04:49:59;;;;;;;4.68;3.05;;;;;;;;;;5033097;28;20041;-82
2022/11/25 04:52:25;;;;;;;4.40;2.88;;;;;;;;;;5032729;28;20033;-82
2022/11/25 04:54:51;;;;;;;6.30;2.83;;;;;;;;;;5039824;28;20041;-83
2022/11/25 04:57:17;;;;;;;2.83;1.92;;;;;;;;;;5035690;28;20026;-82
2022/11/25 04:59:43;;;;;;;4.20;2.50;;;;;;;;;;5036555;28;20033;-82
2022/11/25 05:02:09;;;;;;;5.30;3.17;;;;;;;;;;5029377;28;20025;-81
2022/11/25 05:04:35;;;;;;;3.60;2.25;;;;;;;;;;5042077;28;20040;-83
2022/11/25 05:07:01;;;;;;;5.13;2.35;;;;;;;;;;5039656;28;20372;-82
2022/11/25 05:09:27;;;;;;;5.20;2.63;;;;;;;;;;5042733;28;20045;-83
2022/11/25 05:11:53;;;;;;;14.50;2.90;;;;;;;;;;5037544;28;20026;-82
2022/11/25 05:14:19;;;;;;;3.72;2.35;;;;;;;;;;5036071;28;20052;-83
2022/11/25 05:16:45;;;;;;;3.50;2.03;;;;;;;;;;5046583;28;20125;-83
2022/11/25 05:19:11;;;;;;;6.50;2.55;;;;;;;;;;5039074;28;20025;-82
2022/11/25 05:21:37;;;;;;;5.53;2.45;;;;;;;;;;5036154;28;20093;-82
2022/11/25 05:24:03;;;;;;;5.68;2.72;;;;;;;;;;5022516;28;21614;-83
2022/11/25 05:26:29;;;;;;;2.40;1.95;;;;;;;;;;5040744;28;20050;-84
2022/11/25 05:28:54;;;;;;;4.10;2.85;;;1.80;99.90;;;;;;5040492;28;20033;-82
2022/11/25 05:31:20;;;;;;;8.13;3.67;;;;;;;;;;5045990;28;20013;-82
2022/11/25 05:33:46;;;;;;;3.72;2.97;;;;;;;;;;5037713;28;20083;-83
2022/11/25 05:36:12;;;;;;;4.45;1.95;;;;;;;;;;5046673;28;20025;-83
2022/11/25 05:38:38;;;;;;;4.60;1.80;;;;;;;;;;5031682;28;20037;-82
2022/11/25 05:41:05;;;;;;;4.88;2.53;;;;;;;;;;5036327;28;20040;-81
2022/11/25 05:43:31;;;;;;;6.63;2.92;;;;;;;;;;5034294;28;20115;-82
2022/11/25 05:45:57;;;;;;;3.10;2.63;;;;;;;;;;5037604;28;20513;-83
2022/11/25 05:48:23;;;;;;;4.60;2.70;;;;;;;;;;5034012;28;20120;-84
2022/11/25 05:50:49;;;;;;;5.00;3.03;;;;;;;;;;5017711;28;20053;-84
2022/11/25 05:53:18;;;;;;;4.93;2.92;;;;;;;;;;5017923;28;20482;-81
2022/11/25 05:55:52;;;;;;;5.65;2.58;;;;;;;;;;5025823;28;20029;-81
2022/11/25 05:58:18;;;;;;;4.90;2.65;;;;;;;;;;5031698;28;20049;-81
2022/11/25 06:00:44;;;;;;;7.75;3.75;;;;;;;;;;5031331;28;20025;-84
2022/11/25 06:03:10;;;;;;;10.10;2.85;;;;;;;;;;5034305;28;20021;-83
2022/11/25 06:05:37;;;;;;;4.30;2.80;;;;;;;;;;5030386;28;20100;-82
2022/11/25 06:08:03;;;;;;;3.85;2.80;;;;;;;;;;5021520;28;20030;-82
2022/11/25 06:10:29;;;;;;;3.92;2.58;;;;;;;;;;5029598;28;20041;-82
2022/11/25 06:12:55;;;;;;;3.63;1.90;;;;;;;;;;5019308;28;20034;-82
2022/11/25 06:15:21;;;;;;;12.65;3.00;;;;;;;;;;5021276;28;20111;-84
2022/11/25 06:17:47;;;;;;;6.03;2.05;;;;;;;;;;5026008;28;20038;-84
2022/11/25 06:20:13;;;;;;;4.70;2.58;;;;;;;;;;5027440;28;20033;-84
2022/11/25 06:22:39;;;;;;;4.43;2.97;;;;;;;;;;5030276;28;20824;-84
2022/11/25 06:25:05;;;;;;;3.45;2.58;;;;;;;;;;5036440;28;20053;-85
2022/11/25 06:27:31;;;;;;;6.22;2.63;;;;;;;;;;5021181;28;20026;-84
2022/11/25 06:29:57;;;;;;;7.90;2.90;;;;;;;;;;5037467;28;20041;-84
2022/11/25 06:32:23;;;;;;;21.92;8.80;;;;;;;;;;5039230;28;20561;-84
2022/11/25 06:34:49;;;;;;;36.40;15.38;;;;;;;;;;5031187;28;20041;-84
2022/11/25 06:37:15;;;;;;;20.75;8.15;;;;;;;;;;5038293;28;20087;-84
2022/11/25 06:39:41;;;;;;;15.07;6.57;;;;;;;;;;5042989;28;20017;-83
2022/11/25 06:42:07;;;;;;;26.13;10.95;;;;;;;;;;5034477;28;20049;-84
2022/11/25 06:44:33;;;;;;;19.20;7.43;;;;;;;;;;5037245;28;20036;-85
2022/11/25 06:46:59;;;;;;;17.42;7.40;;;;;;;;;;5038798;28;20022;-84
2022/11/25 06:49:25;;;;;;;14.57;5.60;;;;;;;;;;5039643;28;20700;-84
2022/11/25 06:51:51;;;;;;;5.80;3.42;;;;;;;;;;5037003;28;20034;-84
2022/11/25 06:54:17;;;;;;;3.50;2.22;;;;;;;;;;5042818;28;20029;-84
2022/11/25 06:56:43;;;;;;;4.57;2.55;;;;;;;;;;5035932;28;20869;-84
2022/11/25 06:59:09;;;;;;;5.60;2.75;;;;;;;;;;5034559;28;20036;-84
2022/11/25 07:01:35;;;;;;;3.85;2.80;;;;;;;;;;5041747;28;20010;-83
2022/11/25 07:04:03;;;;;;;4.10;3.13;;;0.90;99.90;;;;;;5042753;28;20035;-84
2022/11/25 07:06:29;;;;;;;8.45;3.10;;;;;;;;;;5040148;28;20019;-85
2022/11/25 07:08:55;;;;;;;3.85;2.40;;;;;;;;;;5032856;28;20041;-84
2022/11/25 07:11:23;;;;;;;4.72;2.33;;;1.00;99.90;;;;;;5036412;28;20541;-86
2022/11/25 07:13:52;;;;;;;13.50;2.53;;;1.00;99.90;;;;;;5035471;28;20116;-84
2022/11/25 07:16:18;;;;;;;5.82;3.40;;;;;;;;;;5038096;28;20032;-84
2022/11/25 07:18:44;;;;;;;4.32;2.78;;;;;;;;;;5038818;28;20060;-85
2022/11/25 07:21:12;;;;;;;5.47;2.80;;;;;;;;;;5040051;28;20505;-84
2022/11/25 07:23:38;;;;;;;4.20;2.15;;;;;;;;;;5040569;28;20029;-84
2022/11/25 07:26:14;;;;;;;7.35;2.28;;;;;;;;;;5036217;28;20088;-84
2022/11/25 07:28:40;;;;;;;5.15;2.72;;;;;;;;;;5039549;28;20026;-83
2022/11/25 07:31:15;;;;;;;4.03;2.67;;;;;;;;;;5037389;28;20130;-84
2022/11/25 07:33:41;;;;;;;6.53;2.70;;;;;;;;;;5044676;28;20060;-85
2022/11/25 07:36:08;;;;;;;2.53;2.25;;;;;;;;;;5042907;28;20055;-84
2022/11/25 07:38:35;;;;;;;6.35;2.65;;;;;;;;;;5044753;28;20038;-83
2022/11/25 07:41:08;;;;;;;3.20;2.13;;;;;;;;;;5044582;28;20029;-84
2022/11/25 07:43:35;;;;;;;8.07;2.90;;;;;;;;;;5036763;28;20028;-84
2022/11/25 07:46:12;;;;;;;3.80;2.05;;;;;;;;;;5042875;28;20025;-84
2022/11/25 07:48:38;;;;;;;4.13;2.97;;;;;;;;;;5036429;28;20044;-84
2022/11/25 07:51:04;;;;;;;3.95;2.33;;;;;;;;;;5040842;28;20030;-85
2022/11/25 07:53:30;;;;;;;4.80;2.10;;;;;;;;;;5043483;28;20030;-84
2022/11/25 07:55:59;;;;;;;3.60;2.55;;;;;;;;;;5036101;28;20029;-84
2022/11/25 07:58:25;;;;;;;7.78;3.78;;;;;;;;;;5044657;28;20091;-84
2022/11/25 08:00:51;;;;;;;6.13;2.70;;;;;;;;;;5039770;28;20037;-85
2022/11/25 08:03:17;;;;;;;4.25;2.75;;;;;;;;;;5042189;28;20037;-84
2022/11/25 08:05:43;;;;;;;3.85;2.17;;;;;;;;;;5035104;28;20546;-84
2022/11/25 08:08:09;;;;;;;4.85;2.88;;;;;;;;;;5041396;28;20498;-85
2022/11/25 08:10:38;;;;;;;4.53;2.67;;;;;;;;;;5036251;28;20048;-84
2022/11/25 08:13:04;;;;;;;6.80;2.65;;;;;;;;;;5044571;28;20086;-84
2022/11/25 08:15:32;;;;;;;8.10;2.55;;;;;;;;;;5048998;28;20033;-84
2022/11/25 08:17:58;;;;;;;7.38;2.30;;;;;;;;;;5043482;28;20060;-83
2022/11/25 08:20:23;;;;;;;4.88;2.63;;;;;;;;;;5032813;28;20025;-84
2022/11/25 08:22:49;;;;;;;14.00;3.55;;;;;;;;;;5039017;28;20029;-84
2022/11/25 08:25:16;;;;;;;8.23;4.75;;;;;;;;;;5040563;28;20029;-84
2022/11/25 08:27:42;;;;;;;19.67;6.00;;;;;;;;;;5039764;28;20028;-84
2022/11/25 08:30:08;;;;;;;15.85;6.75;;;;;;;;;;5038165;28;20041;-84
2022/11/25 08:32:37;;;;;;;18.83;8.55;;;;;;;;;;5036758;28;20040;-85
2022/11/25 08:35:03;;;;;;;19.52;9.00;;;;;;;;;;5038246;28;20036;-83
2022/11/25 08:37:30;;;;;;;17.02;8.70;;;;;;;;;;5047370;28;20024;-84
2022/11/25 08:39:56;;;;;;;22.88;10.25;;;;;;;;;;5041655;28;20586;-83
2022/11/25 08:42:22;;;;;;;11.57;5.63;;;;;;;;;;5032496;28;20054;-85
2022/11/25 08:44:55;;;;;;;16.60;5.47;;;8.80;99.90;;;;;;5041637;28;20720;-84
2022/11/25 08:47:21;;;;;;;12.45;3.75;;;;;;;;;;5036715;28;20029;-84
2022/11/25 08:49:54;;;;;;;6.63;1.73;;;;;;;;;;5037670;28;20050;-85
2022/11/25 08:52:21;;;;;;;4.32;1.55;;;8.80;99.90;;;;;;5037721;28;20029;-84
2022/11/25 08:54:47;;;;;;;4.70;1.50;;;;;;;;;;5038849;28;20025;-85
2022/11/25 08:57:13;;;;;;;4.13;1.95;;;;;;;;;;5035276;28;20022;-86
2022/11/25 08:59:39;;;;;;;6.68;1.65;;;;;;;;;;5039367;28;20033;-84
2022/11/25 09:02:05;;;;;;;3.10;1.60;;;;;;;;;;5033200;28;20030;-84
2022/11/25 09:04:32;;;;;;;1.98;1.23;;;;;;;;;;5028713;28;20025;-84
2022/11/25 09:06:58;;;;;;;3.67;1.92;;;;;;;;;;5041441;28;20041;-84
2022/11/25 09:09:24;;;;;;;3.13;1.65;;;;;;;;;;5036482;28;20048;-84
2022/11/25 09:11:50;;;;;;;4.63;1.75;;;;;;;;;;5034605;28;20033;-85
2022/11/25 09:14:16;;;;;;;4.30;2.05;;;;;;;;;;5037731;28;20036;-83
2022/11/25 09:16:42;;;;;;;2.03;1.60;;;;;;;;;;5032649;28;20022;-85
2022/11/25 09:19:08;;;;;;;2.63;1.65;;;;;;;;;;5037692;28;20029;-85
2022/11/25 09:21:34;;;;;;;12.35;1.80;;;;;;;;;;5034082;28;20070;-85
2022/11/25 09:24:00;;;;;;;6.13;1.95;;;;;;;;;;5039078;28;20026;-84
2022/11/25 09:26:31;;;;;;;9.48;2.35;;;;;;;;;;5033144;28;20022;-84
2022/11/25 09:28:57;;;;;;;5.45;2.50;;;;;;;;;;5033093;28;20059;-84
2022/11/25 09:31:23;;;;;;;5.75;1.85;;;;;;;;;;5037576;28;20148;-83
2022/11/25 09:33:49;;;;;;;3.20;2.25;;;;;;;;;;5036272;28;20042;-84
2022/11/25 09:36:16;;;;;;;5.22;2.50;;;;;;;;;;5033627;28;20036;-85
2022/11/25 09:38:45;;;;;;;2.90;2.53;;;;;;;;;;5034086;28;20074;-84
2022/11/25 09:47:16;;;;;;;7.22;2.83;;;;;;;;;;5041427;28;20105;-85
2022/11/25 09:50:02;;;;;;;12.77;3.33;;;;;;;;;;5036771;28;20033;-85
2022/11/25 09:52:46;;;;;;;11.88;4.03;;;5.90;99.90;;;;;;5036196;28;20034;-85
2022/11/25 09:55:36;;;;;;;6.18;2.97;;;;;;;;;;5036512;28;20033;-84
2022/11/25 09:58:15;;;;;;;4.30;2.35;;;;;;;;;;5039375;28;20021;-86
2022/11/25 10:00:42;;;;;;;5.15;2.22;;;;;;;;;;5037356;28;20029;-85
2022/11/25 10:03:23;;;;;;;5.22;2.25;;;;;;;;;;5036773;28;20021;-85
2022/11/25 10:05:56;;;;;;;4.57;3.00;;;;;;;;;;5034926;28;20071;-84
2022/11/25 10:08:29;;;;;;;6.55;2.17;;;6.40;99.90;;;;;;5036352;28;20404;-86
2022/11/25 10:11:00;;;;;;;4.65;2.00;;;;;;;;;;5030191;28;20037;-86
2022/11/25 10:13:36;;;;;;;4.18;2.38;;;;;;;;;;5040190;28;20026;-85
2022/11/25 10:16:06;;;;;;;4.32;2.10;;;7.30;99.90;;;;;;5032886;28;20385;-85
2022/11/25 10:18:40;;;;;;;3.75;2.20;;;;;;;;;;5040651;28;20032;-85
2022/11/25 10:21:06;;;;;;;4.50;1.63;;;;;;;;;;5033440;28;20396;-85
2022/11/25 10:23:34;;;;;;;6.50;1.98;;;;;;;;;;5039789;28;20021;-84
2022/11/25 10:26:14;;;;;;;6.60;2.40;;;;;;;;;;5032623;28;20153;-84
2022/11/25 10:28:55;;;;;;;7.88;2.35;;;6.40;99.90;;;;;;5041809;28;20068;-86
2022/11/25 10:31:37;;;;;;;2.10;1.40;;;;;;;;;;5028715;28;22364;-85
2022/11/25 10:34:11;;;;;;;3.72;1.60;;;;;;;;;;5038814;28;20068;-86
2022/11/25 10:36:39;;;;;;;5.35;1.85;;;;;;;;;;5042674;28;20014;-85
2022/11/25 10:39:10;;;;;;;5.40;2.58;;;;;;;;;;5038052;28;20029;-84
2022/11/25 10:41:45;;;;;;;4.90;3.13;;;;;;;;;;5040470;28;20030;-83
2022/11/25 10:44:31;;;;;;;4.13;2.17;;;;;;;;;;5038206;28;20033;-85
2022/11/25 10:47:16;;;;;;;11.20;2.60;;;;;;;;;;5037371;28;20045;-85
2022/11/25 10:50:02;;;;;;;6.72;2.88;;;;;;;;;;5040526;28;20052;-84
2022/11/25 10:52:31;;;;;;;6.95;2.15;;;6.50;99.90;;;;;;5041631;28;20030;-85
2022/11/25 10:55:08;;;;;;;9.20;2.40;;;6.50;99.90;;;;;;5039711;28;20056;-84
2022/11/25 10:57:34;;;;;;;2.75;2.22;;;;;;;;;;5040214;28;20030;-85
2022/11/25 11:00:03;;;;;;;3.33;2.30;;;;;;;;;;5043083;28;20105;-85
2022/11/25 11:02:30;;;;;;;5.30;2.78;;;;;;;;;;5042838;28;20381;-85
2022/11/25 11:05:01;;;;;;;5.28;1.77;;;;;;;;;;5048112;28;20058;-83
2022/11/25 11:07:28;;;;;;;4.00;2.25;;;;;;;;;;5047013;28;20033;-84
2022/11/25 11:10:06;;;;;;;2.78;2.03;;;;;;;;;;5053727;28;20049;-83
2022/11/25 11:12:32;;;;;;;6.05;2.10;;;;;;;;;;5050622;28;20079;-84
2022/11/25 11:15:21;;;;;;;5.30;2.05;;;6.80;99.90;;;;;;5037853;28;20105;-83
2022/11/25 11:17:47;;;;;;;10.45;2.10;;;;;;;;;;5036445;28;20060;-83
2022/11/25 11:20:23;;;;;;;3.60;2.03;;;;;;;;;;5041025;28;20148;-83
2022/11/25 11:23:10;;;;;;;6.93;2.25;;;;;;;;;;5039928;28;20041;-83
2022/11/25 11:25:37;;;;;;;6.97;2.72;;;6.40;99.90;;;;;;5039489;28;20040;-83
2022/11/25 11:28:23;;;;;;;3.45;2.65;;;;;;;;;;5044644;28;20025;-83
2022/11/25 11:30:58;;;;;;;3.35;1.92;;;6.70;99.90;;;;;;5038924;28;20045;-86
2022/11/25 11:33:28;;;;;;;3.97;2.53;;;;;;;;;;5035256;28;20483;-84
2022/11/25 11:36:05;;;;;;;4.15;2.47;;;6.50;99.90;;;;;;5040476;28;20017;-83
2022/11/25 11:38:34;;;;;;;2.38;1.92;;;;;;;;;;5041358;28;20034;-84
2022/11/25 11:41:19;;;;;;;6.10;2.22;;;;;;;;;;5027367;28;20112;-83
2022/11/25 11:43:55;;;;;;;2.92;2.28;;;;;;;;;;5040977;28;20072;-83
2022/11/25 11:46:36;;;;;;;9.15;2.45;;;;;;;;;;5039255;28;20064;-83
2022/11/25 11:49:08;;;;;;;4.30;2.05;;;;;;;;;;5039139;28;20088;-83
2022/11/25 11:51:51;;;;;;;4.03;2.10;;;6.80;99.90;;;;;;5039071;28;20515;-84
2022/11/25 11:54:35;;;;;;;6.03;2.03;;;;;;;;;;5034573;28;20284;-83
2022/11/25 11:57:11;;;;;;;6.20;1.95;;;;;;;;;;5039428;28;20044;-84
2022/11/25 11:59:48;;;;;;;18.50;2.50;;;;;;;;;;5038754;28;20026;-83
2022/11/25 12:02:28;;;;;;;4.07;2.13;;;7.20;99.90;;;;;;5039286;28;20037;-83
2022/11/25 12:05:06;;;;;;;5.70;1.75;;;;;;;;;;5036500;28;20089;-83
2022/11/25 12:07:54;;;;;;;4.38;1.63;;;;;;;;;;5034123;28;20022;-84
2022/11/25 12:10:20;;;;;;;2.10;1.00;;;;;;;;;;5040402;28;20061;-84
2022/11/25 12:13:07;;;;;;;12.93;4.43;;;8.10;99.90;;;;;;5030872;28;20029;-83
2022/11/25 12:15:39;;;;;;;6.22;1.80;;;;;;;;;;5035456;28;20064;-82
2022/11/25 12:18:26;;;;;;;7.00;2.15;;;;;;;;;;5032167;28;20055;-83
2022/11/25 12:20:52;;;;;;;9.98;1.92;;;;;;;;;;5027359;28;20037;-83
2022/11/25 12:23:17;;;;;;;8.25;1.75;;;;;;;;;;5036087;28;20025;-83
2022/11/25 12:25:44;;;;;;;4.85;1.23;;;;;;;;;;5038190;28;20044;-83
2022/11/25 12:28:16;;;;;;;3.10;1.15;;;;;;;;;;5039411;28;20495;-84
2022/11/25 12:31:03;;;;;;;2.90;1.95;;;;;;;;;;5031984;28;20041;-84
2022/11/25 12:33:48;;;;;;;7.90;2.50;;;;;;;;;;5032038;28;20029;-83
2022/11/25 12:36:35;;;;;;;6.57;1.77;;;;;;;;;;5033365;28;20029;-84
2022/11/25 12:39:05;;;;;;;7.05;2.25;;;;;;;;;;5037637;28;20120;-85
2022/11/25 12:41:44;;;;;;;7.32;2.05;;;7.90;99.90;;;;;;5037723;28;20056;-84
2022/11/25 12:44:19;;;;;;;7.80;2.30;;;;;;;;;;5031933;28;20026;-83
2022/11/25 12:46:46;;;;;;;5.47;2.58;;;;;;;;;;5032701;28;20033;-84
2022/11/25 12:49:24;;;;;;;7.97;2.00;;;;;;;;;;5039568;28;20036;-84
2022/11/25 12:51:58;;;;;;;9.43;2.53;;;;;;;;;;5036462;28;20039;-83
2022/11/25 12:54:37;;;;;;;5.25;2.70;;;;;;;;;;5035337;28;20026;-84
2022/11/25 12:57:18;;;;;;;5.18;2.10;;;;;;;;;;5035283;28;20435;-85
2022/11/25 12:59:56;;;;;;;5.15;2.03;;;;;;;;;;5036896;28;20033;-85
2022/11/25 13:02:31;;;;;;;7.60;2.88;;;;;;;;;;5034812;28;20048;-85
2022/11/25 13:04:57;;;;;;;3.92;1.55;;;;;;;;;;5032175;28;20049;-83
2022/11/25 13:07:25;;;;;;;3.40;2.45;;;;;;;;;;5037387;28;20052;-83
2022/11/25 13:10:19;;;;;;;4.13;2.50;;;8.50;99.90;;;;;;5037793;28;20083;-84
2022/11/25 13:13:03;;;;;;;3.22;2.03;;;;;;;;;;5035243;28;20025;-85
2022/11/25 13:15:36;;;;;;;6.28;3.47;;;8.40;99.90;;;;;;5040614;28;20065;-82
2022/11/25 13:18:04;;;;;;;4.10;2.20;;;;;;;;;;5029223;28;20025;-85
2022/11/25 13:20:30;;;;;;;5.30;2.72;;;;;;;;;;5031003;28;20034;-81
2022/11/25 13:23:07;;;;;;;4.53;2.53;;;;;;;;;;5040629;28;20029;-81
2022/11/25 13:25:34;;;;;;;3.83;2.42;;;8.20;99.90;;;;;;5032755;28;20048;-81
2022/11/25 13:28:01;;;;;;;3.58;1.92;;;;;;;;;;5033800;28;20052;-82
2022/11/25 13:30:32;;;;;;;7.68;2.47;;;;;;;;;;5027616;28;20924;-82
2022/11/25 13:33:22;;;;;;;3.85;1.95;;;;;;;;;;5029111;28;20029;-82
2022/11/25 13:35:57;;;;;;;6.78;2.65;;;;;;;;;;5004109;28;20046;-82
2022/11/25 13:38:29;;;;;;;7.93;2.83;;;;;;;;;;5034947;28;20379;-83
2022/11/25 13:41:14;;;;;;;4.97;3.13;;;8.40;99.90;;;;;;5036924;28;20037;-83
2022/11/25 13:43:56;;;;;;;7.72;2.28;;;;;;;;;;5036278;28;20053;-82
2022/11/25 13:46:34;;;;;;;6.40;2.30;;;;;;;;;;5033644;28;20036;-83
2022/11/25 13:49:00;;;;;;;10.80;2.72;;;;;;;;;;5032450;28;20041;-84
2022/11/25 13:51:26;;;;;;;14.52;4.38;;;;;;;;;;5031661;28;20023;-83
2022/11/25 13:54:15;;;;;;;7.20;3.60;;;;;;;;;;5030996;28;20078;-83
2022/11/25 13:56:41;;;;;;;7.05;3.20;;;;;;;;;;5028917;28;20378;-84
2022/11/25 13:59:10;;;;;;;6.50;2.60;;;;;;;;;;5029948;28;20021;-82
2022/11/25 14:01:45;;;;;;;4.82;2.80;;;8.30;99.90;;;;;;5033176;28;20025;-80
2022/11/25 14:04:14;;;;;;;5.15;3.13;;;8.70;99.90;;;;;;5031231;28;20495;-81
2022/11/25 14:06:51;;;;;;;10.23;3.65;;;;;;;;;;5032037;28;20076;-80
2022/11/25 14:09:20;;;;;;;9.15;3.55;;;;;;;;;;5022246;28;21139;-80
2022/11/25 14:12:10;;;;;;;6.78;3.17;;;;;;;;;;5031725;28;20037;-80
2022/11/25 14:14:53;;;;;;;7.50;3.25;;;;;;;;;;5034370;28;20037;-80
2022/11/25 14:17:19;;;;;;;12.57;3.80;;;;;;;;;;5025754;28;20097;-80
2022/11/25 14:19:59;;;;;;;21.65;8.20;;;;;;;;;;4624780;28;25647787;-80
2022/11/25 14:22:34;;;;;;;14.55;5.97;;;;;;;;;;5049562;28;20262;-79
2022/11/25 14:25:12;;;;;;;7.75;4.03;;;;;;;;;;5061702;28;20036;-80
2022/11/25 14:27:38;;;;;;;6.13;3.35;;;;;;;;;;5050200;28;20036;-79
2022/11/25 14:30:05;;;;;;;12.70;4.18;;;;;;;;;;5046790;28;20033;-84
2022/11/25 14:32:39;;;;;;;6.20;3.65;;;;;;;;;;5055241;28;20092;-78
2022/11/25 14:35:10;;;;;;;9.50;3.67;;;;;;;;;;5058304;28;20020;-80
2022/11/25 14:37:57;;;;;;;16.25;5.45;;;8.50;99.90;;;;;;5051687;28;20031;-81
2022/11/25 14:40:26;;;;;;;21.58;8.48;;;;;;;;;;5060883;28;22372;-78
2022/11/25 14:43:01;;;;;;;18.23;8.88;;;8.00;99.90;;;;;;5054989;28;20031;-81
2022/11/25 14:45:33;;;;;;;8.00;4.63;;;;;;;;;;5057905;28;20056;-78
2022/11/25 14:48:12;;;;;;;12.25;4.60;;;;;;;;;;5043484;28;20419;-80
2022/11/25 14:50:39;;;;;;;13.38;6.22;;;;;;;;;;5049836;28;20047;-80
2022/11/25 14:53:06;;;;;;;8.88;4.57;;;;;;;;;;5051053;28;20037;-81
2022/11/25 14:55:32;;;;;;;7.65;4.10;;;;;;;;;;5052641;28;20025;-82
2022/11/25 14:57:58;;;;;;;14.07;5.20;;;;;;;;;;5055002;28;20029;-82